Time;durP1;ratioP1;P1;durP2;ratioP2;P2;SDS_P1;SDS_P2;PMS_P1;PMS_P2;Temp;Humidity;BMP_temperature;BMP_pressure;BME280_temperature;BME280_humidity;BME280_pressure;Samples;Min_cycle;Max_cycle;Signal;HPM_P1;HPM_P2
2022/03/12 00:02:40;;;;;;;19.08;10.80;;;10.50;47.10;;;;;;10011602;28;20038;-62
2022/03/12 00:07:31;;;;;;;23.05;10.63;;;10.30;47.60;;;;;;10012463;28;20034;-56
2022/03/12 00:12:25;;;;;;;19.58;10.95;;;10.20;48.20;;;;;;10014472;28;20100;-61
2022/03/12 00:17:16;;;;;;;23.55;11.07;;;10.10;48.30;;;;;;10038215;28;20103;-62
2022/03/12 00:22:09;;;;;;;21.45;10.57;;;10.10;48.70;;;;;;10041037;28;20095;-63
2022/03/12 00:27:00;;;;;;;34.83;18.77;;;10.10;48.70;;;;;;10032526;28;20022;-61
2022/03/12 00:31:53;;;;;;;44.67;23.30;;;10.10;48.80;;;;;;10044184;28;20034;-56
2022/03/12 00:36:48;;;;;;;36.28;17.75;;;10.20;48.60;;;;;;10022152;28;20539;-62
2022/03/12 00:41:38;;;;;;;22.77;12.07;;;10.20;49.00;;;;;;10034486;28;20412;-62
2022/03/12 00:46:29;;;;;;;20.80;11.88;;;10.10;49.20;;;;;;10011359;28;20026;-60
2022/03/12 00:51:20;;;;;;;21.25;11.38;;;10.00;49.60;;;;;;9997589;28;20061;-59
2022/03/12 00:56:11;;;;;;;23.38;11.40;;;9.90;49.70;;;;;;10004091;28;20035;-57
2022/03/12 01:01:03;;;;;;;22.90;12.23;;;9.70;49.90;;;;;;9999823;28;20299;-52
2022/03/12 01:05:59;;;;;;;22.80;12.25;;;9.70;50.20;;;;;;10011442;28;20026;-66
2022/03/12 01:10:52;;;;;;;25.33;11.75;;;9.70;50.10;;;;;;9987611;28;20043;-65
2022/03/12 01:15:43;;;;;;;26.10;12.70;;;9.80;50.30;;;;;;10010284;28;20038;-72
2022/03/12 01:20:33;;;;;;;22.60;12.43;;;9.90;50.20;;;;;;9999277;28;20117;-65
2022/03/12 01:25:24;;;;;;;21.70;11.60;;;9.90;50.20;;;;;;10016700;28;20030;-62
2022/03/12 01:30:24;;;;;;;23.92;10.75;;;9.90;50.30;;;;;;10004806;28;20162;-63
2022/03/12 01:35:15;;;;;;;23.60;12.18;;;9.90;50.90;;;;;;10004780;28;20353;-63
2022/03/12 01:40:07;;;;;;;26.08;12.15;;;10.00;50.60;;;;;;10008191;28;20037;-62
2022/03/12 01:44:58;;;;;;;25.10;13.65;;;9.90;50.70;;;;;;9991827;28;20389;-64
2022/03/12 01:49:53;;;;;;;27.48;12.60;;;9.70;51.10;;;;;;9995603;28;20030;-62
2022/03/12 01:54:44;;;;;;;25.37;12.77;;;9.70;51.00;;;;;;9997503;28;20040;-63
2022/03/12 01:59:37;;;;;;;22.20;13.95;;;9.80;51.00;;;;;;10004129;28;20578;-64
2022/03/12 02:04:29;;;;;;;23.42;12.00;;;9.80;51.10;;;;;;10015991;28;20448;-62
2022/03/12 02:09:22;;;;;;;25.20;14.32;;;9.80;51.10;;;;;;10006939;28;20524;-62
2022/03/12 02:14:15;;;;;;;25.30;12.13;;;9.60;51.20;;;;;;9990883;28;20575;-64
2022/03/12 02:19:05;;;;;;;22.13;12.18;;;9.60;51.60;;;;;;10005553;28;20041;-64
2022/03/12 02:23:56;;;;;;;25.25;14.18;;;9.60;51.70;;;;;;10012967;28;20034;-62
2022/03/12 02:28:47;;;;;;;24.50;12.90;;;9.70;51.80;;;;;;10015052;28;20664;-62
2022/03/12 02:33:37;;;;;;;24.52;13.50;;;9.80;51.90;;;;;;10008029;28;20534;-62
2022/03/12 02:38:28;;;;;;;20.90;12.45;;;9.80;52.20;;;;;;10008228;28;20087;-61
2022/03/12 02:43:21;;;;;;;27.00;13.20;;;9.80;52.30;;;;;;9991699;28;20413;-63
2022/03/12 02:48:12;;;;;;;25.90;12.05;;;9.70;52.60;;;;;;10001773;28;20026;-67
2022/03/12 02:53:03;;;;;;;29.08;14.43;;;9.70;52.90;;;;;;9984813;28;20404;-67
2022/03/12 02:57:54;;;;;;;24.02;12.57;;;9.60;53.20;;;;;;10011413;28;20037;-62
2022/03/12 03:02:53;;;;;;;19.48;11.65;;;9.60;53.60;;;;;;10016784;28;20037;-61
2022/03/12 03:07:54;;;;;;;24.40;12.50;;;9.60;53.60;;;;;;9991903;28;20026;-67
2022/03/12 03:12:45;;;;;;;21.88;12.93;;;9.80;53.40;;;;;;9993254;28;20088;-64
2022/03/12 03:17:40;;;;;;;24.73;14.02;;;9.60;53.70;;;;;;10012970;28;20022;-66
2022/03/12 03:22:30;;;;;;;23.17;11.60;;;9.70;53.70;;;;;;10002805;28;20072;-65
2022/03/12 03:27:21;;;;;;;24.95;13.00;;;9.90;53.70;;;;;;9997250;28;20033;-65
2022/03/12 03:32:13;;;;;;;27.77;14.32;;;9.90;53.70;;;;;;10010981;28;20447;-62
2022/03/12 03:37:04;;;;;;;23.33;11.88;;;9.80;53.90;;;;;;9998131;28;20226;-66
2022/03/12 03:41:54;;;;;;;20.15;10.80;;;9.60;54.50;;;;;;10025718;28;20061;-64
2022/03/12 03:46:45;;;;;;;25.45;13.48;;;9.70;55.10;;;;;;9996609;28;20060;-62
2022/03/12 03:51:41;;;;;;;27.42;12.15;;;9.60;55.40;;;;;;10007224;28;20030;-63
2022/03/12 03:56:34;;;;;;;21.60;11.02;;;9.70;55.20;;;;;;10002926;28;20507;-61
2022/03/12 04:01:25;;;;;;;22.17;11.85;;;9.70;55.40;;;;;;10000274;28;20045;-62
2022/03/12 04:06:20;;;;;;;21.73;12.77;;;9.80;55.40;;;;;;9987150;28;20037;-66
2022/03/12 04:11:15;;;;;;;18.90;9.63;;;9.90;55.40;;;;;;9989331;28;20026;-61
2022/03/12 04:16:06;;;;;;;21.67;12.07;;;10.00;55.20;;;;;;9987655;28;20048;-65
2022/03/12 04:20:57;;;;;;;21.90;11.95;;;9.80;55.50;;;;;;9995607;28;20313;-72
2022/03/12 04:25:49;;;;;;;18.98;10.63;;;9.50;56.10;;;;;;10006333;28;20101;-65
2022/03/12 04:30:40;;;;;;;19.88;10.95;;;9.60;56.40;;;;;;9998119;28;20053;-68
2022/03/12 04:35:32;;;;;;;20.42;10.50;;;9.60;56.10;;;;;;9999223;28;20031;-65
2022/03/12 04:40:25;;;;;;;18.90;9.82;;;9.70;56.00;;;;;;9997480;28;20129;-65
2022/03/12 04:45:34;;;;;;;16.85;8.93;;;9.80;56.30;;;;;;9995821;28;20060;-68
2022/03/12 04:50:25;;;;;;;20.08;9.80;;;9.90;57.00;;;;;;9996724;28;20085;-66
2022/03/12 04:55:18;;;;;;;21.20;8.85;;;9.70;56.50;;;;;;10008642;28;20037;-68
2022/03/12 05:00:25;;;;;;;16.80;8.80;;;9.20;57.30;;;;;;10003380;28;20042;-68
2022/03/12 05:05:16;;;;;;;19.10;10.02;;;9.10;57.30;;;;;;10008387;28;20069;-67
2022/03/12 05:10:07;;;;;;;15.23;8.73;;;9.00;57.10;;;;;;9996000;28;20508;-66
2022/03/12 05:14:58;;;;;;;15.65;8.52;;;9.00;57.10;;;;;;9991744;28;20046;-68
2022/03/12 05:19:50;;;;;;;20.50;9.80;;;8.90;57.20;;;;;;9985892;28;20053;-67
2022/03/12 05:24:41;;;;;;;16.58;9.70;;;8.90;57.10;;;;;;9998871;28;20030;-68
2022/03/12 05:29:33;;;;;;;20.13;9.40;;;8.80;57.10;;;;;;10010988;28;20413;-63
2022/03/12 05:34:24;;;;;;;17.67;10.13;;;8.90;57.20;;;;;;10001129;28;20082;-68
2022/03/12 05:39:15;;;;;;;18.42;8.70;;;8.90;57.10;;;;;;9997167;28;20056;-65
2022/03/12 05:44:07;;;;;;;18.08;9.25;;;8.90;57.10;;;;;;9995797;28;20030;-67
2022/03/12 05:48:57;;;;;;;17.70;9.57;;;8.90;57.30;;;;;;10000352;28;20040;-67
2022/03/12 05:53:49;;;;;;;20.95;9.50;;;8.90;57.30;;;;;;9994676;28;20378;-65
2022/03/12 05:58:40;;;;;;;16.25;10.00;;;8.80;57.50;;;;;;9992334;28;20030;-66
2022/03/12 06:03:31;;;;;;;19.80;9.32;;;8.80;57.50;;;;;;10018951;28;20500;-66
2022/03/12 06:08:23;;;;;;;18.23;9.00;;;8.80;57.60;;;;;;10010876;28;20030;-66
2022/03/12 06:13:16;;;;;;;18.60;10.68;;;8.80;57.90;;;;;;10013386;28;20121;-66
2022/03/12 06:18:08;;;;;;;19.75;11.10;;;8.90;57.90;;;;;;10012805;28;20101;-66
2022/03/12 06:22:59;;;;;;;19.27;10.00;;;8.80;57.70;;;;;;9997623;28;20076;-67
2022/03/12 06:27:56;;;;;;;18.52;10.35;;;8.80;57.80;;;;;;10003927;28;20108;-66
2022/03/12 06:32:48;;;;;;;20.00;10.07;;;8.80;57.90;;;;;;10005528;28;20031;-68
2022/03/12 06:37:40;;;;;;;20.27;10.23;;;8.80;58.00;;;;;;10001400;28;20121;-67
2022/03/12 06:42:32;;;;;;;15.63;10.20;;;9.00;57.90;;;;;;10010312;28;20041;-67
2022/03/12 06:47:29;;;;;;;21.00;10.45;;;9.00;57.90;;;;;;10004395;28;20295;-70
2022/03/12 06:52:19;;;;;;;16.65;9.75;;;9.00;58.00;;;;;;9995083;28;20041;-69
2022/03/12 06:57:11;;;;;;;20.98;10.18;;;9.20;57.80;;;;;;9984515;28;20022;-68
2022/03/12 07:02:02;;;;;;;18.17;10.38;;;9.30;57.80;;;;;;10008506;28;20072;-69
2022/03/12 07:06:53;;;;;;;18.48;9.63;;;9.20;58.40;;;;;;10010558;28;20088;-67
2022/03/12 07:11:44;;;;;;;18.02;10.25;;;9.20;58.60;;;;;;10004978;28;20037;-68
2022/03/12 07:16:34;;;;;;;19.05;9.77;;;9.20;58.40;;;;;;9994899;28;20077;-68
2022/03/12 07:21:25;;;;;;;13.65;9.57;;;9.30;58.20;;;;;;9998783;28;20364;-68
2022/03/12 07:26:16;;;;;;;20.42;9.75;;;9.40;58.30;;;;;;10009466;28;20037;-70
2022/03/12 07:31:07;;;;;;;20.27;8.95;;;9.40;58.40;;;;;;10010475;28;20066;-68
2022/03/12 07:35:58;;;;;;;19.20;9.63;;;9.30;58.90;;;;;;10017405;28;20492;-67
2022/03/12 07:40:48;;;;;;;21.88;11.55;;;9.40;59.00;;;;;;10018435;28;20026;-69
2022/03/12 07:45:39;;;;;;;25.70;11.50;;;9.40;58.20;;;;;;9996587;28;20040;-68
2022/03/12 07:50:30;;;;;;;17.10;10.20;;;9.20;58.60;;;;;;9989006;28;20034;-69
2022/03/12 07:55:22;;;;;;;17.27;9.15;;;9.00;58.60;;;;;;10002456;28;20108;-65
2022/03/12 08:00:15;;;;;;;16.20;8.82;;;9.10;58.60;;;;;;10009602;28;20492;-68
2022/03/12 08:05:05;;;;;;;15.60;9.95;;;9.30;58.40;;;;;;10001431;28;20026;-66
2022/03/12 08:09:56;;;;;;;16.67;9.02;;;9.30;58.00;;;;;;9985633;28;20525;-69
2022/03/12 08:14:47;;;;;;;16.75;9.38;;;9.50;57.90;;;;;;9990653;28;20281;-67
2022/03/12 08:19:38;;;;;;;19.55;9.32;;;9.70;57.80;;;;;;9995803;28;20314;-64
2022/03/12 08:24:29;;;;;;;18.40;8.25;;;9.80;57.40;;;;;;9992802;28;20358;-64
2022/03/12 08:29:21;;;;;;;16.25;8.45;;;9.90;57.30;;;;;;9996194;28;20254;-64
2022/03/12 08:34:12;;;;;;;14.68;9.30;;;10.10;57.10;;;;;;9997234;28;20076;-66
2022/03/12 08:39:04;;;;;;;15.10;8.52;;;10.20;56.80;;;;;;10023974;28;20042;-64
2022/03/12 08:43:54;;;;;;;17.40;8.85;;;10.50;56.50;;;;;;9999416;28;20026;-65
2022/03/12 08:48:45;;;;;;;15.95;9.23;;;10.70;56.20;;;;;;9992920;28;20037;-64
2022/03/12 08:53:36;;;;;;;17.48;9.35;;;10.70;55.90;;;;;;9998100;28;20164;-64
2022/03/12 08:58:29;;;;;;;19.45;9.95;;;10.60;56.00;;;;;;9999245;28;20407;-63
2022/03/12 09:03:20;;;;;;;16.55;9.68;;;10.70;55.90;;;;;;9999071;28;20054;-66
2022/03/12 09:08:12;;;;;;;15.15;9.02;;;10.80;55.60;;;;;;10002634;28;20511;-63
2022/03/12 09:13:03;;;;;;;18.52;10.50;;;10.90;55.50;;;;;;10004482;28;20056;-63
2022/03/12 09:17:53;;;;;;;19.38;10.18;;;11.00;55.30;;;;;;9979580;28;20022;-62
2022/03/12 09:22:45;;;;;;;20.55;10.27;;;11.10;55.10;;;;;;10006035;28;20092;-65
2022/03/12 09:27:36;;;;;;;23.38;11.88;;;11.20;54.90;;;;;;10004872;28;20022;-65
2022/03/12 09:32:27;;;;;;;21.45;11.38;;;11.40;54.70;;;;;;10015231;28;20026;-65
2022/03/12 09:37:18;;;;;;;23.02;11.63;;;11.50;54.70;;;;;;10021097;28;20121;-64
2022/03/12 09:42:09;;;;;;;25.17;11.48;;;11.70;54.30;;;;;;10019993;28;20044;-66
2022/03/12 09:46:59;;;;;;;21.77;11.20;;;12.00;54.20;;;;;;10017869;28;20105;-62
2022/03/12 09:51:50;;;;;;;20.35;11.35;;;12.20;54.00;;;;;;10017842;28;20164;-64
2022/03/12 09:56:42;;;;;;;22.88;10.35;;;12.40;53.80;;;;;;10012845;28;20052;-64
2022/03/12 10:01:33;;;;;;;22.63;14.30;;;12.40;53.80;;;;;;10015206;28;20042;-63
2022/03/12 10:06:24;;;;;;;21.63;12.85;;;12.40;53.90;;;;;;10017868;28;20048;-63
2022/03/12 10:11:15;;;;;;;22.77;12.88;;;12.50;53.90;;;;;;10017829;28;20109;-64
2022/03/12 10:16:07;;;;;;;18.10;11.25;;;12.80;53.80;;;;;;10027033;28;20061;-64
2022/03/12 10:21:00;;;;;;;20.25;11.35;;;12.90;53.50;;;;;;10032128;28;20037;-62
2022/03/12 10:25:50;;;;;;;21.88;12.77;;;13.20;53.40;;;;;;10039813;28;20025;-63
2022/03/12 10:30:41;;;;;;;24.48;13.40;;;13.40;53.10;;;;;;10034446;28;20045;-63
2022/03/12 10:35:37;;;;;;;25.00;12.25;;;13.70;53.20;;;;;;10021894;28;20112;-64
2022/03/12 10:40:30;;;;;;;24.55;12.75;;;13.80;53.10;;;;;;10012554;28;20044;-62
2022/03/12 10:45:26;;;;;;;18.85;11.75;;;13.90;53.00;;;;;;10006852;28;20093;-62
2022/03/12 10:50:42;;;;;;;21.17;12.68;;;14.00;53.20;;;;;;9996875;28;20101;-63
2022/03/12 10:55:44;;;;;;;18.42;11.23;;;14.20;52.90;;;;;;9984768;28;20042;-63
2022/03/12 11:00:48;;;;;;;20.48;11.38;;;14.00;53.50;;;;;;9991300;28;20042;-63
2022/03/12 11:05:41;;;;;;;20.58;10.90;;;14.10;53.60;;;;;;10005609;28;20030;-64
2022/03/12 11:10:33;;;;;;;24.92;11.43;;;14.20;53.20;;;;;;9997609;28;20463;-64
2022/03/12 11:15:24;;;;;;;18.13;10.20;;;14.40;53.00;;;;;;9987973;28;20050;-63
2022/03/12 11:20:21;;;;;;;16.98;10.68;;;14.40;52.90;;;;;;9987983;28;20436;-63
2022/03/12 11:25:15;;;;;;;17.95;9.85;;;14.50;52.90;;;;;;9992054;28;20034;-62
2022/03/12 11:30:08;;;;;;;19.15;9.63;;;14.60;52.90;;;;;;10015781;28;20041;-63
2022/03/12 11:35:11;;;;;;;16.20;10.18;;;14.50;52.90;;;;;;9999695;28;20018;-63
2022/03/12 11:40:03;;;;;;;14.38;9.15;;;14.60;53.20;;;;;;10004414;28;20520;-64
2022/03/12 11:44:56;;;;;;;14.05;8.98;;;14.70;53.00;;;;;;10004494;28;20042;-64
2022/03/12 11:49:48;;;;;;;12.88;9.05;;;15.10;52.50;;;;;;10014774;28;20064;-63
2022/03/12 11:54:43;;;;;;;14.23;8.55;;;15.20;52.50;;;;;;10000977;28;20281;-63
2022/03/12 11:59:35;;;;;;;11.90;7.47;;;15.20;52.30;;;;;;9984599;28;20043;-64
2022/03/12 12:04:26;;;;;;;14.35;7.43;;;15.30;52.50;;;;;;10012331;28;20382;-63
2022/03/12 12:09:16;;;;;;;11.88;7.03;;;15.50;52.20;;;;;;10000728;28;20132;-64
2022/03/12 12:14:07;;;;;;;11.68;7.57;;;15.60;52.10;;;;;;9998035;28;20145;-62
2022/03/12 12:18:58;;;;;;;11.63;7.32;;;15.80;52.00;;;;;;10002394;28;20034;-63
2022/03/12 12:23:48;;;;;;;12.50;6.70;;;15.70;51.90;;;;;;10000014;28;20332;-64
2022/03/12 12:28:48;;;;;;;11.63;6.50;;;15.50;52.60;;;;;;10004223;28;20037;-63
2022/03/12 12:33:43;;;;;;;8.68;6.35;;;15.40;52.60;;;;;;10007541;28;20524;-64
2022/03/12 12:38:35;;;;;;;13.05;6.97;;;15.50;52.60;;;;;;10004348;28;20277;-64
2022/03/12 12:43:34;;;;;;;9.93;6.00;;;15.70;52.30;;;;;;9994054;28;20325;-64
2022/03/12 12:48:48;;;;;;;11.32;6.07;;;15.80;52.10;;;;;;10008012;28;20025;-63
2022/03/12 12:53:47;;;;;;;12.45;6.07;;;16.00;51.60;;;;;;10010722;28;20038;-65
2022/03/12 12:58:53;;;;;;;13.75;5.97;;;16.00;52.00;;;;;;10009985;28;20022;-64
2022/03/12 13:03:51;;;;;;;11.02;6.47;;;15.90;51.90;;;;;;10009818;28;20038;-65
2022/03/12 13:08:44;;;;;;;10.73;5.20;;;16.20;51.70;;;;;;9997156;28;20023;-66
2022/03/12 13:13:35;;;;;;;9.23;6.43;;;16.40;51.50;;;;;;9981618;28;20054;-65
2022/03/12 13:18:28;;;;;;;9.43;5.65;;;16.30;51.60;;;;;;9987150;28;20116;-64
2022/03/12 13:23:28;;;;;;;12.68;7.00;;;16.20;51.90;;;;;;9987117;28;20038;-65
2022/03/12 13:28:41;;;;;;;11.38;6.55;;;15.70;52.30;;;;;;9994115;28;20065;-65
2022/03/12 13:33:32;;;;;;;11.98;6.28;;;15.90;52.00;;;;;;10011545;28;20072;-65
2022/03/12 13:38:23;;;;;;;12.73;6.15;;;16.10;51.90;;;;;;10009086;28;20029;-67
2022/03/12 13:43:14;;;;;;;12.52;6.07;;;16.50;51.50;;;;;;10010437;28;20034;-65
2022/03/12 13:48:05;;;;;;;11.23;6.72;;;17.30;51.40;;;;;;10013471;28;20126;-67
2022/03/12 13:52:59;;;;;;;12.60;6.65;;;18.70;50.80;;;;;;10014265;28;20504;-68
2022/03/12 13:57:50;;;;;;;8.40;6.37;;;20.20;49.40;;;;;;10007564;28;20032;-69
2022/03/12 14:02:49;;;;;;;13.30;7.55;;;20.60;48.80;;;;;;10011465;28;20337;-67
2022/03/12 14:07:40;;;;;;;11.77;7.30;;;20.20;48.00;;;;;;10005577;28;20036;-64
2022/03/12 14:12:30;;;;;;;11.82;7.07;;;20.20;48.70;;;;;;10014900;28;20040;-65
2022/03/12 14:17:29;;;;;;;9.20;6.40;;;21.20;47.80;;;;;;10026983;28;20057;-65
2022/03/12 14:22:20;;;;;;;7.32;5.55;;;21.50;47.00;;;;;;10021599;28;20034;-65
2022/03/12 14:27:12;;;;;;;9.27;6.22;;;21.00;47.10;;;;;;10035402;28;20419;-65
2022/03/12 14:32:05;;;;;;;14.32;8.40;;;21.30;45.90;;;;;;10033045;28;20018;-65
2022/03/12 14:36:57;;;;;;;10.35;7.10;;;21.40;45.30;;;;;;10018662;28;20690;-65
2022/03/12 14:41:48;;;;;;;9.57;6.00;;;21.40;44.60;;;;;;10008206;28;20297;-66
2022/03/12 14:46:45;;;;;;;8.93;6.10;;;22.10;43.60;;;;;;10012609;28;20343;-65
2022/03/12 14:51:36;;;;;;;9.48;6.05;;;22.70;42.60;;;;;;9988905;28;20480;-65
2022/03/12 14:56:26;;;;;;;11.52;7.75;;;23.20;41.70;;;;;;9980135;28;20045;-65
2022/03/12 15:01:27;;;;;;;9.43;6.20;;;22.80;41.20;;;;;;10000319;28;20097;-66
2022/03/12 15:06:18;;;;;;;10.93;7.13;;;23.60;39.40;;;;;;9987522;28;20120;-65
2022/03/12 15:11:10;;;;;;;10.10;6.65;;;23.50;39.20;;;;;;9997994;28;20573;-65
2022/03/12 15:16:01;;;;;;;12.05;7.65;;;22.70;39.30;;;;;;10008710;28;20050;-65
2022/03/12 15:20:52;;;;;;;8.45;6.07;;;23.70;38.20;;;;;;10011723;28;20034;-65
2022/03/12 15:25:54;;;;;;;13.75;7.75;;;23.50;37.60;;;;;;10007576;28;20072;-64
2022/03/12 15:30:47;;;;;;;9.20;7.10;;;22.80;38.00;;;;;;10013703;28;20026;-65
2022/03/12 15:35:48;;;;;;;11.10;7.07;;;23.20;37.80;;;;;;10012313;28;20036;-66
2022/03/12 15:40:43;;;;;;;8.13;5.72;;;22.50;37.90;;;;;;10013915;28;20038;-65
2022/03/12 15:45:39;;;;;;;12.52;5.97;;;24.00;36.60;;;;;;10012744;28;20033;-64
2022/03/12 15:50:30;;;;;;;8.85;6.07;;;23.10;36.90;;;;;;10009702;28;20073;-65
2022/03/12 15:55:24;;;;;;;11.07;5.90;;;23.30;37.00;;;;;;10008279;28;20065;-64
2022/03/12 16:00:20;;;;;;;7.07;5.22;;;23.90;36.40;;;;;;9995755;28;20393;-66
2022/03/12 16:05:13;;;;;;;10.93;6.07;;;24.20;36.10;;;;;;10002662;28;20053;-65
2022/03/12 16:10:08;;;;;;;9.75;5.85;;;23.50;36.70;;;;;;9997419;28;20053;-65
2022/03/12 16:14:59;;;;;;;7.60;5.68;;;22.60;37.80;;;;;;9997773;28;20409;-64
2022/03/12 16:19:50;;;;;;;6.55;5.00;;;22.00;38.00;;;;;;9989549;28;20045;-65
2022/03/12 16:24:40;;;;;;;7.53;5.30;;;21.90;37.80;;;;;;10012733;28;20030;-67
2022/03/12 16:29:31;;;;;;;8.30;5.35;;;21.30;38.20;;;;;;10011671;28;20039;-69
2022/03/12 16:34:22;;;;;;;10.55;6.15;;;19.30;40.30;;;;;;10008676;28;20018;-66
2022/03/12 16:39:13;;;;;;;11.85;6.13;;;18.10;41.50;;;;;;9999493;28;20489;-69
2022/03/12 16:44:08;;;;;;;9.93;6.05;;;17.30;42.20;;;;;;9996354;28;20061;-68
2022/03/12 16:49:01;;;;;;;12.25;7.20;;;17.00;42.00;;;;;;9995627;28;20038;-67
2022/03/12 16:53:52;;;;;;;10.15;5.75;;;16.50;42.60;;;;;;9978457;28;20022;-68
2022/03/12 16:58:43;;;;;;;9.98;6.00;;;16.30;43.00;;;;;;9999638;28;20342;-66
2022/03/12 17:03:34;;;;;;;11.27;7.22;;;16.00;43.20;;;;;;9993566;28;20042;-70
2022/03/12 17:08:25;;;;;;;12.32;6.43;;;15.90;43.10;;;;;;10008297;28;20033;-69
2022/03/12 17:13:17;;;;;;;14.50;7.25;;;15.70;43.40;;;;;;10006841;28;20052;-71
2022/03/12 17:18:07;;;;;;;9.75;5.28;;;15.50;43.50;;;;;;9995352;28;20129;-69
2022/03/12 17:22:58;;;;;;;10.43;5.90;;;15.50;44.50;;;;;;10014357;28;20128;-69
2022/03/12 17:27:56;;;;;;;12.35;6.65;;;15.20;44.30;;;;;;9991457;28;20081;-69
2022/03/12 17:32:49;;;;;;;11.25;6.70;;;15.00;44.80;;;;;;9991882;28;20029;-69
2022/03/12 17:37:40;;;;;;;13.63;6.88;;;14.80;45.10;;;;;;9995465;28;20100;-68
2022/03/12 17:42:32;;;;;;;10.77;6.68;;;14.60;45.90;;;;;;9996917;28;20539;-72
2022/03/12 17:47:23;;;;;;;12.05;7.32;;;14.50;45.40;;;;;;9986228;28;20031;-70
2022/03/12 17:52:14;;;;;;;14.93;6.93;;;14.50;45.60;;;;;;9988867;28;20026;-71
2022/03/12 17:57:04;;;;;;;14.45;6.72;;;14.40;45.80;;;;;;9998061;28;20037;-70
2022/03/12 18:01:55;;;;;;;12.95;7.22;;;14.30;45.60;;;;;;10003418;28;20030;-68
2022/03/12 18:06:48;;;;;;;15.85;6.72;;;14.20;45.80;;;;;;10001322;28;20038;-71
2022/03/12 18:11:39;;;;;;;13.75;6.80;;;14.20;45.90;;;;;;10000532;28;20057;-71
2022/03/12 18:16:30;;;;;;;10.32;6.45;;;14.10;45.90;;;;;;9991603;28;20046;-69
2022/03/12 18:21:22;;;;;;;11.80;5.88;;;14.00;46.20;;;;;;9999884;28;20444;-71
2022/03/12 18:26:13;;;;;;;12.27;6.80;;;14.00;46.50;;;;;;10010190;28;20113;-71
2022/03/12 18:31:04;;;;;;;8.27;5.40;;;13.90;46.70;;;;;;10009442;28;20022;-70
2022/03/12 18:35:55;;;;;;;11.55;6.68;;;13.90;47.10;;;;;;10017811;28;20576;-71
2022/03/12 18:40:47;;;;;;;11.93;6.28;;;13.80;47.20;;;;;;10003956;28;20445;-69
2022/03/12 18:45:38;;;;;;;12.63;6.45;;;13.70;47.50;;;;;;10004044;28;20029;-65
2022/03/12 18:50:29;;;;;;;11.38;5.25;;;13.70;47.50;;;;;;10001277;28;20472;-65
2022/03/12 18:55:21;;;;;;;10.43;5.78;;;13.60;47.50;;;;;;9995364;28;20034;-66
2022/03/12 19:00:12;;;;;;;8.88;5.07;;;13.50;47.70;;;;;;10006507;28;20050;-65
2022/03/12 19:05:03;;;;;;;12.20;5.65;;;13.50;48.00;;;;;;10015268;28;20441;-66
2022/03/12 19:09:54;;;;;;;8.75;5.20;;;13.50;48.10;;;;;;10013371;28;20025;-65
2022/03/12 19:14:44;;;;;;;9.75;4.82;;;13.40;48.40;;;;;;10017432;28;20358;-69
2022/03/12 19:19:35;;;;;;;11.57;5.25;;;13.30;48.50;;;;;;10015763;28;20029;-70
2022/03/12 19:24:26;;;;;;;9.25;5.13;;;13.20;48.60;;;;;;10014130;28;20052;-69
2022/03/12 19:29:17;;;;;;;7.57;4.65;;;13.20;48.80;;;;;;10015826;28;20554;-69
2022/03/12 19:34:12;;;;;;;11.02;5.25;;;13.20;48.70;;;;;;10012401;28;20039;-69
2022/03/12 19:39:07;;;;;;;9.48;5.13;;;13.00;48.80;;;;;;10017645;28;20457;-68
2022/03/12 19:43:57;;;;;;;11.57;6.30;;;13.00;49.10;;;;;;10004104;28;20604;-67
2022/03/12 19:48:49;;;;;;;9.75;4.97;;;12.90;49.00;;;;;;10004898;28;20034;-68
2022/03/12 19:53:40;;;;;;;16.05;6.72;;;12.80;49.20;;;;;;10012058;28;20547;-65
2022/03/12 19:58:32;;;;;;;10.60;5.68;;;12.70;49.40;;;;;;10002896;28;20116;-66
2022/03/12 20:03:23;;;;;;;11.30;6.55;;;12.70;49.60;;;;;;10011563;28;20041;-68
2022/03/12 20:08:13;;;;;;;11.60;6.85;;;12.60;49.70;;;;;;10015963;28;20033;-69
2022/03/12 20:13:05;;;;;;;11.30;6.65;;;12.50;49.90;;;;;;10015642;28;20582;-67
2022/03/12 20:17:57;;;;;;;21.63;8.15;;;12.50;50.00;;;;;;9990905;28;20437;-68
2022/03/12 20:22:49;;;;;;;11.48;6.35;;;12.50;50.10;;;;;;9993388;28;20421;-68
2022/03/12 20:27:42;;;;;;;11.68;6.22;;;12.40;50.20;;;;;;10012134;28;20125;-66
2022/03/12 20:32:32;;;;;;;10.50;6.18;;;12.30;50.50;;;;;;10007940;28;20022;-68
2022/03/12 20:37:23;;;;;;;14.38;5.60;;;12.20;50.70;;;;;;10013811;28;20029;-66
2022/03/12 20:42:15;;;;;;;14.75;7.47;;;12.10;50.90;;;;;;10014466;28;20500;-67
2022/03/12 20:47:06;;;;;;;15.35;7.25;;;12.10;51.20;;;;;;10010863;28;20481;-66
2022/03/12 20:51:57;;;;;;;13.85;6.70;;;12.10;51.20;;;;;;10005086;28;20125;-66
2022/03/12 20:56:48;;;;;;;11.25;6.95;;;12.00;51.30;;;;;;10002775;28;20132;-70
2022/03/12 21:01:39;;;;;;;12.07;6.80;;;12.00;51.50;;;;;;10001946;28;20128;-66
2022/03/12 21:06:30;;;;;;;11.35;7.00;;;12.00;51.70;;;;;;10008156;28;20091;-67
2022/03/12 21:11:22;;;;;;;12.13;6.90;;;11.90;52.00;;;;;;10012438;28;20041;-66
2022/03/12 21:16:14;;;;;;;11.40;6.22;;;11.80;52.30;;;;;;10002274;28;20037;-66
2022/03/12 21:21:05;;;;;;;11.82;6.70;;;11.80;52.40;;;;;;9981039;28;20568;-66
2022/03/12 21:25:56;;;;;;;14.18;6.97;;;11.80;52.60;;;;;;10011879;28;20437;-67
2022/03/12 21:30:48;;;;;;;12.25;6.60;;;11.80;52.70;;;;;;10015495;28;20048;-65
2022/03/12 21:35:39;;;;;;;13.32;6.65;;;11.80;52.80;;;;;;10013424;28;20022;-67
2022/03/12 21:40:32;;;;;;;14.20;7.25;;;11.70;53.20;;;;;;10009632;28;20038;-66
2022/03/12 21:45:24;;;;;;;10.57;6.60;;;11.60;53.60;;;;;;10009190;28;20113;-69
2022/03/12 21:50:19;;;;;;;10.30;6.03;;;11.50;54.00;;;;;;10015243;28;20069;-67
2022/03/12 21:55:11;;;;;;;11.57;6.05;;;11.40;54.10;;;;;;10013038;28;20328;-65
2022/03/12 22:00:05;;;;;;;13.07;6.35;;;11.30;54.40;;;;;;9994266;28;20479;-68
2022/03/12 22:04:56;;;;;;;9.90;5.55;;;11.20;54.90;;;;;;10002839;28;20101;-66
2022/03/12 22:09:47;;;;;;;9.82;5.47;;;11.10;55.10;;;;;;10002265;28;20561;-66
2022/03/12 22:14:39;;;;;;;10.77;6.80;;;11.00;55.10;;;;;;10010425;28;20046;-66
2022/03/12 22:19:29;;;;;;;10.50;5.15;;;10.90;55.00;;;;;;10003591;28;20031;-66
2022/03/12 22:24:20;;;;;;;10.15;4.88;;;10.90;55.10;;;;;;10016794;28;20026;-66
2022/03/12 22:29:11;;;;;;;12.98;6.22;;;10.90;55.20;;;;;;10005594;28;20040;-66
2022/03/12 22:34:02;;;;;;;8.93;5.78;;;10.80;55.10;;;;;;10001995;28;20072;-68
2022/03/12 22:38:57;;;;;;;10.05;5.38;;;10.90;54.80;;;;;;10010536;28;20057;-64
2022/03/12 22:43:50;;;;;;;9.77;5.30;;;10.80;54.80;;;;;;9994146;28;20029;-65
2022/03/12 22:48:44;;;;;;;13.07;6.10;;;10.80;54.60;;;;;;10001408;28;20022;-65
2022/03/12 22:53:35;;;;;;;13.27;5.53;;;10.60;54.90;;;;;;10006892;28;20116;-65
2022/03/12 22:58:25;;;;;;;12.48;5.57;;;10.60;55.50;;;;;;10001396;28;20310;-65
2022/03/12 23:03:19;;;;;;;12.52;5.95;;;10.70;54.70;;;;;;9989971;28;20195;-65
2022/03/12 23:08:49;;;;;;;14.98;5.50;;;10.60;54.60;;;;;;10032889;28;20036;-65
2022/03/12 23:13:35;;;;;;;11.45;5.85;;;10.50;54.40;;;;;;10002097;28;20100;-64
2022/03/12 23:18:26;;;;;;;14.38;6.60;;;10.50;54.50;;;;;;10001598;28;20142;-64
2022/03/12 23:23:18;;;;;;;13.35;6.22;;;10.30;54.50;;;;;;10005749;28;20523;-65
2022/03/12 23:28:10;;;;;;;12.30;6.70;;;10.30;54.50;;;;;;9997047;28;20416;-66
2022/03/12 23:33:01;;;;;;;12.90;7.00;;;10.10;54.60;;;;;;9998899;28;20034;-65
2022/03/12 23:37:52;;;;;;;11.20;5.78;;;10.00;54.80;;;;;;9999645;28;20026;-64
2022/03/12 23:42:43;;;;;;;10.35;6.00;;;9.80;54.90;;;;;;9994226;28;20038;-64
2022/03/12 23:47:34;;;;;;;11.80;6.60;;;9.80;55.10;;;;;;10001426;28;20140;-65
2022/03/12 23:52:32;;;;;;;10.18;5.00;;;9.70;55.40;;;;;;10001705;28;20042;-63
2022/03/12 23:57:25;;;;;;;13.10;6.88;;;9.60;55.70;;;;;;9987786;28;20038;-64
